Time;durP1;ratioP1;P1;durP2;ratioP2;P2;SDS_P1;SDS_P2;PMS_P1;PMS_P2;Temp;Humidity;BMP_temperature;BMP_pressure;BME280_temperature;BME280_humidity;BME280_pressure;Samples;Min_cycle;Max_cycle;Signal;HPM_P1;HPM_P2
2022/12/21 00:00:17;;;;;;;23.63;21.30;;;5.70;99.90;;;;;;5114588;28;20187;-83
2022/12/21 00:02:43;;;;;;;23.77;21.27;;;5.80;99.90;;;;;;5095777;28;20269;-87
2022/12/21 00:05:09;;;;;;;24.40;22.03;;;5.80;99.90;;;;;;5094795;28;20221;-85
2022/12/21 00:07:35;;;;;;;24.63;22.13;;;6.00;99.90;;;;;;5112863;28;20191;-86
2022/12/21 00:10:01;;;;;;;25.07;22.43;;;5.90;99.90;;;;;;5113197;28;20202;-86
2022/12/21 00:12:27;;;;;;;24.20;21.57;;;5.90;99.90;;;;;;5112374;28;20675;-85
2022/12/21 00:14:53;;;;;;;22.97;20.77;;;5.80;99.90;;;;;;5113261;28;20206;-86
2022/12/21 00:17:18;;;;;;;22.87;20.63;;;5.90;99.90;;;;;;5104251;28;20182;-85
2022/12/21 00:19:44;;;;;;;24.00;21.57;;;5.90;99.90;;;;;;5112861;28;20244;-86
2022/12/21 00:22:10;;;;;;;22.20;20.20;;;5.90;99.90;;;;;;5113179;28;20187;-86
2022/12/21 00:24:36;;;;;;;22.00;19.80;;;5.90;99.90;;;;;;5113249;28;20187;-85
2022/12/21 00:27:01;;;;;;;19.83;17.93;;;5.90;99.90;;;;;;5112129;28;20621;-85
2022/12/21 00:29:28;;;;;;;18.87;17.00;;;6.00;99.90;;;;;;5112285;28;20210;-85
2022/12/21 00:31:54;;;;;;;18.13;16.20;;;6.10;99.90;;;;;;5110351;28;20210;-85
2022/12/21 00:34:21;;;;;;;17.53;15.83;;;6.10;99.90;;;;;;5112712;28;20179;-85
2022/12/21 00:36:47;;;;;;;17.03;15.13;;;6.20;99.90;;;;;;5112686;28;20202;-86
2022/12/21 00:39:14;;;;;;;17.57;15.87;;;6.30;99.90;;;;;;5113098;28;20226;-84
2022/12/21 00:41:40;;;;;;;15.77;14.17;;;6.30;99.90;;;;;;5110606;28;20218;-85
2022/12/21 00:44:06;;;;;;;15.83;14.30;;;6.60;99.90;;;;;;5112150;28;20195;-86
2022/12/21 00:46:32;;;;;;;16.97;15.20;;;6.70;99.90;;;;;;5111397;28;20334;-85
2022/12/21 00:49:00;;;;;;;16.70;15.17;;;6.80;99.90;;;;;;5112391;28;20575;-84
2022/12/21 00:51:28;;;;;;;16.10;14.47;;;6.80;99.90;;;;;;5111829;28;20182;-83
2022/12/21 00:53:55;;;;;;;17.63;15.93;;;6.70;99.90;;;;;;5111708;28;20190;-85
2022/12/21 00:56:21;;;;;;;15.77;13.40;;;6.60;99.90;;;;;;5093501;28;20193;-83
2022/12/21 00:58:47;;;;;;;12.30;11.20;;;6.70;99.90;;;;;;5112136;28;20312;-85
2022/12/21 01:01:18;;;;;;;14.50;13.10;;;6.90;99.90;;;;;;5111424;28;20175;-85
2022/12/21 01:03:45;;;;;;;13.63;12.33;;;7.10;99.90;;;;;;5110775;28;20187;-85
2022/12/21 01:06:31;;;;;;;13.10;11.97;;;7.10;99.90;;;;;;5111255;28;20210;-84
2022/12/21 01:08:57;;;;;;;13.00;10.80;;;7.10;99.90;;;;;;5110542;28;20209;-83
2022/12/21 01:11:24;;;;;;;10.40;9.40;;;7.30;99.90;;;;;;5111937;28;20212;-85
2022/12/21 01:13:51;;;;;;;10.40;9.27;;;7.40;99.90;;;;;;5109679;28;20212;-84
2022/12/21 01:16:21;;;;;;;10.60;8.47;;;7.50;99.90;;;;;;5109921;28;20217;-85
2022/12/21 01:18:47;;;;;;;8.33;7.53;;;7.80;99.90;;;;;;5109930;28;20206;-85
2022/12/21 01:21:15;;;;;;;9.27;7.60;;;7.80;99.90;;;;;;5110531;28;20187;-84
2022/12/21 01:23:41;;;;;;;10.13;8.00;;;8.00;99.90;;;;;;5110322;28;20175;-85
2022/12/21 01:26:06;;;;;;;7.97;6.57;;;8.10;99.90;;;;;;5110844;28;20215;-85
2022/12/21 01:28:32;;;;;;;8.80;6.17;;;8.30;99.90;;;;;;5110345;28;20233;-85
2022/12/21 01:31:02;;;;;;;9.17;6.77;;;8.30;99.90;;;;;;5110751;28;20209;-86
2022/12/21 01:33:28;;;;;;;7.23;6.53;;;8.40;99.90;;;;;;5111342;28;20197;-85
2022/12/21 01:35:54;;;;;;;6.90;5.73;;;8.40;99.90;;;;;;5111539;28;20235;-85
2022/12/21 01:38:19;;;;;;;6.57;6.00;;;8.50;99.90;;;;;;5111129;28;20214;-85
2022/12/21 01:40:45;;;;;;;7.90;5.40;;;8.60;99.90;;;;;;5107582;28;20198;-84
2022/12/21 01:43:18;;;;;;;4.60;4.20;;;8.70;99.90;;;;;;5109012;28;20194;-83
2022/12/21 01:45:47;;;;;;;5.40;4.23;;;9.00;99.90;;;;;;5110032;28;20206;-83
2022/12/21 01:48:17;;;;;;;6.30;4.43;;;9.00;99.90;;;;;;5110607;28;20210;-84
2022/12/21 01:50:45;;;;;;;4.37;3.43;;;9.10;99.90;;;;;;5112275;28;20179;-84
2022/12/21 01:53:24;;;;;;;5.87;3.83;;;9.50;99.90;;;;;;5114415;28;20182;-84
2022/12/21 01:55:53;;;;;;;5.93;4.00;;;9.50;99.90;;;;;;5114149;28;20177;-85
2022/12/21 01:58:21;;;;;;;4.30;3.80;;;9.40;99.90;;;;;;5113929;28;20199;-84
2022/12/21 02:00:47;;;;;;;5.63;3.77;;;9.50;99.90;;;;;;5112490;28;20194;-84
2022/12/21 02:03:17;;;;;;;3.63;3.13;;;9.50;99.90;;;;;;5109899;28;20280;-85
2022/12/21 02:06:08;;;;;;;5.60;3.30;;;9.60;99.90;;;;;;5106386;28;20221;-83
2022/12/21 02:08:34;;;;;;;6.80;3.27;;;9.70;99.90;;;;;;5108405;28;20195;-83
2022/12/21 02:11:01;;;;;;;4.87;3.63;;;9.70;99.90;;;;;;5108901;28;20189;-85
2022/12/21 02:13:27;;;;;;;3.77;3.17;;;9.70;99.90;;;;;;5110905;28;20190;-85
2022/12/21 02:15:59;;;;;;;6.67;3.47;;;9.90;99.90;;;;;;5110046;28;20239;-84
2022/12/21 02:18:49;;;;;;;4.77;3.20;;;9.80;99.90;;;;;;5109078;28;20514;-85
2022/12/21 02:21:29;;;;;;;3.50;3.20;;;9.80;99.90;;;;;;5110282;28;20226;-85
2022/12/21 02:23:57;;;;;;;5.53;3.90;;;9.80;99.90;;;;;;5109417;28;20187;-84
2022/12/21 02:26:26;;;;;;;4.37;3.13;;;9.90;99.90;;;;;;5107157;28;20568;-85
2022/12/21 02:29:10;;;;;;;4.83;3.40;;;9.80;99.90;;;;;;5112673;28;20287;-83
2022/12/21 02:32:05;;;;;;;4.13;3.13;;;9.90;99.90;;;;;;5114118;28;20195;-84
2022/12/21 02:34:58;;;;;;;4.10;3.20;;;9.90;99.90;;;;;;5113434;28;20181;-83
2022/12/21 02:37:44;;;;;;;4.50;3.03;;;9.80;99.90;;;;;;5110130;28;20179;-84
2022/12/21 02:40:28;;;;;;;3.77;3.03;;;9.90;99.90;;;;;;5106069;28;20202;-84
2022/12/21 02:46:31;;;;;;;3.80;3.10;;;10.00;99.90;;;;;;5108186;28;20214;-85
2022/12/21 02:49:08;;;;;;;4.30;3.07;;;9.90;99.90;;;;;;5088371;28;20274;-84
2022/12/21 02:51:41;;;;;;;5.07;3.23;;;10.00;99.90;;;;;;5110614;28;20166;-84
2022/12/21 02:54:08;;;;;;;3.90;2.97;;;10.00;99.90;;;;;;5110381;28;20171;-84
2022/12/21 02:56:34;;;;;;;4.67;2.77;;;10.00;99.90;;;;;;5108842;28;20572;-84
2022/12/21 02:59:00;;;;;;;4.53;2.90;;;9.90;99.90;;;;;;5105629;28;20213;-82
2022/12/21 03:01:50;;;;;;;3.33;3.03;;;9.90;99.90;;;;;;5109935;28;20182;-85
2022/12/21 03:04:35;;;;;;;4.00;2.93;;;9.90;99.90;;;;;;5108407;28;20187;-81
2022/12/21 03:07:23;;;;;;;5.03;2.90;;;10.10;99.90;;;;;;5105874;28;20619;-83
2022/12/21 03:10:16;;;;;;;4.10;3.10;;;10.00;99.90;;;;;;5108835;28;20191;-80
2022/12/21 03:13:03;;;;;;;3.57;3.00;;;10.00;99.90;;;;;;5109045;28;20186;-82
2022/12/21 03:16:08;;;;;;;3.17;2.70;;;10.00;99.90;;;;;;5107094;28;20187;-84
2022/12/21 03:18:43;;;;;;;4.60;2.80;;;10.20;99.90;;;;;;5109371;28;20202;-84
2022/12/21 03:21:24;;;;;;;5.60;2.60;;;10.00;99.90;;;;;;5109087;28;20194;-83
2022/12/21 03:24:00;;;;;;;3.67;2.60;;;10.10;99.90;;;;;;5108456;28;20187;-84
2022/12/21 03:26:26;;;;;;;3.90;2.83;;;10.00;99.90;;;;;;5109505;28;20218;-83
2022/12/21 03:28:53;;;;;;;2.70;2.50;;;10.00;99.90;;;;;;5109937;28;20284;-84
2022/12/21 03:31:24;;;;;;;3.33;2.90;;;10.20;99.90;;;;;;5111515;28;20280;-83
2022/12/21 03:34:24;;;;;;;3.63;2.40;;;10.10;99.90;;;;;;5113767;28;20183;-83
2022/12/21 03:37:06;;;;;;;4.37;2.73;;;10.20;99.90;;;;;;5111467;28;20187;-84
2022/12/21 03:39:33;;;;;;;3.20;2.83;;;10.10;99.90;;;;;;5112107;28;20230;-83
2022/12/21 03:42:12;;;;;;;3.23;2.70;;;10.10;99.90;;;;;;5110879;28;20183;-83
2022/12/21 03:44:47;;;;;;;3.07;2.77;;;10.00;99.90;;;;;;5112311;28;20216;-83
2022/12/21 03:47:17;;;;;;;3.10;2.80;;;10.00;99.90;;;;;;5111665;28;20206;-82
2022/12/21 03:49:51;;;;;;;3.47;2.83;;;10.10;99.90;;;;;;5102127;28;20202;-84
2022/12/21 03:52:24;;;;;;;4.33;2.73;;;10.10;99.90;;;;;;5113900;28;20339;-83
2022/12/21 03:55:00;;;;;;;3.47;2.73;;;10.20;99.90;;;;;;5113042;28;20175;-83
2022/12/21 03:57:27;;;;;;;3.43;2.63;;;10.20;99.90;;;;;;5114902;28;20183;-82
2022/12/21 03:59:56;;;;;;;5.70;2.80;;;10.10;99.90;;;;;;5115295;28;20199;-82
2022/12/21 04:02:32;;;;;;;3.00;2.67;;;10.20;99.90;;;;;;5118103;28;20183;-87
2022/12/21 04:05:35;;;;;;;4.57;2.70;;;10.20;99.90;;;;;;5111661;28;20194;-84
2022/12/21 04:08:01;;;;;;;5.87;3.40;;;10.10;99.90;;;;;;5105460;28;20246;-82
2022/12/21 04:10:27;;;;;;;9.07;3.03;;;10.00;99.90;;;;;;5089179;28;20198;-85
2022/12/21 04:12:53;;;;;;;2.73;2.53;;;10.00;99.90;;;;;;5106575;28;20668;-84
2022/12/21 04:16:02;;;;;;;5.07;3.17;;;10.10;99.90;;;;;;5103253;28;20198;-83
2022/12/21 04:18:10;;;;;;;3.93;2.80;;;10.00;99.90;;;;;;5103515;28;20270;-83
2022/12/21 04:20:36;;;;;;;4.90;2.77;;;10.20;99.90;;;;;;5105521;28;20838;-84
2022/12/21 04:28:31;;;;;;;3.47;3.10;;;10.10;99.90;;;;;;5107465;28;20205;-83
2022/12/21 04:30:59;;;;;;;3.13;2.80;;;10.20;99.90;;;;;;5107933;28;20175;-86
2022/12/21 04:33:26;;;;;;;3.00;2.80;;;10.20;99.90;;;;;;5111862;28;20203;-83
2022/12/21 04:38:41;;;;;;;2.80;2.60;;;10.20;99.90;;;;;;5108213;28;20236;-86
2022/12/21 04:41:07;;;;;;;4.23;2.97;;;10.10;99.90;;;;;;5109435;28;20217;-82
2022/12/21 04:43:36;;;;;;;4.27;2.80;;;10.00;99.90;;;;;;5107362;28;20179;-84
2022/12/21 04:46:02;;;;;;;5.67;3.00;;;10.00;99.90;;;;;;5110440;28;20215;-85
2022/12/21 04:48:29;;;;;;;3.87;2.80;;;10.00;99.90;;;;;;5109247;28;20297;-82
2022/12/21 04:50:55;;;;;;;4.07;3.07;;;10.10;99.90;;;;;;5109736;28;20187;-82
2022/12/21 04:53:21;;;;;;;3.00;2.80;;;10.20;99.90;;;;;;5108123;28;20197;-84
2022/12/21 04:55:47;;;;;;;5.30;2.80;;;10.30;99.90;;;;;;5110412;28;20206;-85
2022/12/21 04:58:13;;;;;;;3.73;2.70;;;10.20;99.90;;;;;;5106874;28;20207;-84
2022/12/21 05:00:39;;;;;;;5.07;2.83;;;10.10;99.90;;;;;;5109905;28;20194;-82
2022/12/21 05:03:04;;;;;;;3.67;3.33;;;10.10;99.90;;;;;;5111122;28;20190;-85
2022/12/21 05:05:30;;;;;;;7.10;6.43;;;10.20;99.90;;;;;;5109775;28;20214;-83
2022/12/21 05:07:56;;;;;;;3.77;3.20;;;10.20;99.90;;;;;;5109511;28;20190;-85
2022/12/21 05:10:22;;;;;;;3.93;3.10;;;10.20;99.90;;;;;;5110278;28;20182;-85
2022/12/21 05:12:48;;;;;;;6.10;2.90;;;10.20;99.90;;;;;;5109993;28;20517;-83
2022/12/21 05:15:16;;;;;;;3.23;2.93;;;10.30;99.90;;;;;;5109537;28;20187;-85
2022/12/21 05:17:42;;;;;;;5.10;2.90;;;10.20;99.90;;;;;;5109455;28;20190;-84
2022/12/21 05:20:08;;;;;;;3.73;3.30;;;10.20;99.90;;;;;;5109043;28;20222;-84
2022/12/21 05:22:34;;;;;;;4.87;3.40;;;10.10;99.90;;;;;;5091873;28;20194;-84
2022/12/21 05:24:59;;;;;;;3.40;3.03;;;10.20;99.90;;;;;;5109151;28;20187;-84
2022/12/21 05:27:25;;;;;;;4.17;2.77;;;10.30;99.90;;;;;;5109287;28;20198;-83
2022/12/21 05:29:50;;;;;;;3.83;2.77;;;10.20;99.90;;;;;;5109318;28;20707;-84
2022/12/21 05:32:16;;;;;;;5.27;4.43;;;10.10;99.90;;;;;;5109421;28;20179;-85
2022/12/21 05:34:42;;;;;;;4.77;4.37;;;10.20;99.90;;;;;;5107173;28;20167;-81
2022/12/21 05:37:07;;;;;;;3.73;3.50;;;10.20;99.90;;;;;;5109678;28;20330;-82
2022/12/21 05:39:34;;;;;;;5.27;3.43;;;10.20;99.90;;;;;;5107125;28;20203;-83
2022/12/21 05:42:01;;;;;;;8.20;7.60;;;10.10;99.90;;;;;;5104809;28;20207;-82
2022/12/21 05:44:27;;;;;;;3.87;3.47;;;10.10;99.90;;;;;;5099342;28;20246;-85
2022/12/21 05:46:52;;;;;;;5.20;4.00;;;10.10;99.90;;;;;;5102358;28;20222;-83
2022/12/21 05:49:21;;;;;;;8.60;7.03;;;10.10;99.90;;;;;;5105714;28;20236;-83
2022/12/21 05:51:48;;;;;;;3.30;3.10;;;10.10;99.90;;;;;;5108473;28;20193;-84
2022/12/21 05:54:15;;;;;;;24.70;23.37;;;10.10;99.90;;;;;;5103986;28;20183;-82
2022/12/21 05:56:41;;;;;;;3.30;3.00;;;10.10;99.90;;;;;;5107000;28;20221;-83
2022/12/21 05:59:07;;;;;;;4.30;3.90;;;10.00;99.90;;;;;;5108133;28;20230;-85
2022/12/21 06:01:33;;;;;;;3.30;3.00;;;10.10;99.90;;;;;;5103966;28;20187;-84
2022/12/21 06:03:58;;;;;;;4.90;3.30;;;10.10;99.90;;;;;;5090939;28;20208;-84
2022/12/21 06:06:24;;;;;;;4.73;4.33;;;10.10;99.90;;;;;;5108655;28;20218;-83
2022/12/21 06:08:50;;;;;;;3.07;2.83;;;10.10;99.90;;;;;;5108092;28;20206;-83
2022/12/21 06:11:18;;;;;;;3.97;3.53;;;10.00;99.90;;;;;;5105820;28;20191;-85
2022/12/21 06:13:44;;;;;;;2.93;2.70;;;10.10;99.90;;;;;;5107534;28;20189;-82
2022/12/21 06:16:16;;;;;;;4.10;3.10;;;10.10;99.90;;;;;;5107057;28;20213;-83
2022/12/21 06:18:42;;;;;;;3.60;3.10;;;10.00;99.90;;;;;;5106997;28;20208;-81
2022/12/21 06:21:09;;;;;;;3.77;3.10;;;10.10;99.90;;;;;;5103789;28;20563;-82
2022/12/21 06:23:35;;;;;;;8.43;7.57;;;10.00;99.90;;;;;;5107843;28;20195;-83
2022/12/21 06:26:03;;;;;;;4.83;3.40;;;10.10;99.90;;;;;;5107714;28;20209;-82
2022/12/21 06:28:28;;;;;;;3.70;3.40;;;10.10;99.90;;;;;;5107736;28;20218;-85
2022/12/21 06:31:00;;;;;;;4.07;3.23;;;10.10;99.90;;;;;;5104004;28;20189;-83
2022/12/21 06:33:26;;;;;;;3.77;3.33;;;10.10;99.90;;;;;;5105570;28;20187;-81
2022/12/21 06:35:55;;;;;;;3.47;3.17;;;10.10;99.90;;;;;;5107712;28;20198;-83
2022/12/21 06:38:21;;;;;;;5.90;3.50;;;10.20;99.90;;;;;;5108253;28;20198;-85
2022/12/21 06:40:59;;;;;;;4.13;2.90;;;10.00;99.90;;;;;;5108580;28;20202;-84
2022/12/21 06:43:26;;;;;;;6.87;3.20;;;10.10;99.90;;;;;;5104162;28;20262;-83
2022/12/21 06:45:56;;;;;;;5.90;3.17;;;10.10;99.90;;;;;;5104954;28;20199;-83
2022/12/21 06:48:23;;;;;;;4.60;3.33;;;10.10;99.90;;;;;;5107375;28;20511;-84
2022/12/21 06:50:56;;;;;;;3.73;2.70;;;10.10;99.90;;;;;;5106162;28;20214;-82
2022/12/21 06:53:24;;;;;;;4.10;3.13;;;10.20;99.90;;;;;;5106156;28;20182;-83
2022/12/21 06:55:57;;;;;;;3.13;2.83;;;10.10;99.90;;;;;;5109609;28;20222;-84
2022/12/21 06:58:22;;;;;;;4.00;2.90;;;10.10;99.90;;;;;;5106479;28;20207;-84
2022/12/21 07:00:49;;;;;;;3.50;3.20;;;10.20;99.90;;;;;;5108336;28;20185;-83
2022/12/21 07:03:14;;;;;;;3.63;2.70;;;10.10;99.90;;;;;;5111451;28;20163;-84
2022/12/21 07:05:40;;;;;;;4.23;2.97;;;10.20;99.90;;;;;;5113973;28;20283;-84
2022/12/21 07:08:06;;;;;;;3.50;3.00;;;10.20;99.90;;;;;;5118109;28;20232;-82
2022/12/21 07:10:32;;;;;;;5.60;2.83;;;10.30;99.90;;;;;;5116912;28;20196;-85
2022/12/21 07:12:57;;;;;;;3.53;3.07;;;10.30;99.90;;;;;;5110478;28;20187;-83
2022/12/21 07:15:23;;;;;;;3.10;2.80;;;10.40;99.90;;;;;;5111590;28;20212;-82
2022/12/21 07:17:49;;;;;;;3.27;2.97;;;10.30;99.90;;;;;;5111844;28;20182;-84
2022/12/21 07:20:14;;;;;;;3.70;3.10;;;10.40;99.90;;;;;;5110633;28;20210;-83
2022/12/21 07:22:40;;;;;;;3.63;2.93;;;10.40;99.90;;;;;;5112872;28;20183;-85
2022/12/21 07:25:06;;;;;;;4.67;3.00;;;10.40;99.90;;;;;;5114236;28;20563;-82
2022/12/21 07:27:32;;;;;;;3.17;2.90;;;10.40;99.90;;;;;;5114362;28;20191;-85
2022/12/21 07:29:57;;;;;;;3.17;2.87;;;10.40;99.90;;;;;;5111865;28;20691;-84
2022/12/21 07:32:23;;;;;;;5.47;3.30;;;10.40;99.90;;;;;;5115240;28;20211;-83
2022/12/21 07:34:49;;;;;;;3.43;3.13;;;10.30;99.90;;;;;;5113327;28;20186;-84
2022/12/21 07:37:14;;;;;;;3.50;2.53;;;10.30;99.90;;;;;;5093928;28;20194;-82
2022/12/21 07:39:40;;;;;;;4.23;3.50;;;10.40;99.90;;;;;;5113616;28;20218;-82
2022/12/21 07:42:05;;;;;;;4.17;3.03;;;10.30;99.90;;;;;;5113631;28;20221;-84
2022/12/21 07:44:31;;;;;;;3.50;3.20;;;10.30;99.90;;;;;;5111023;28;20648;-83
2022/12/21 07:46:57;;;;;;;6.63;3.80;;;10.20;99.90;;;;;;5108029;28;20215;-82
2022/12/21 07:49:22;;;;;;;4.03;3.47;;;10.30;99.90;;;;;;5112382;28;20612;-83
2022/12/21 07:51:48;;;;;;;5.00;3.23;;;10.30;99.90;;;;;;5113659;28;20186;-83
2022/12/21 07:54:14;;;;;;;4.07;3.30;;;10.30;99.90;;;;;;5113038;28;20186;-83
2022/12/21 07:56:40;;;;;;;5.10;3.57;;;10.30;99.90;;;;;;5111973;28;20670;-81
2022/12/21 07:59:06;;;;;;;5.73;3.47;;;10.40;99.90;;;;;;5111691;28;20225;-82
2022/12/21 08:01:31;;;;;;;5.90;3.57;;;10.40;99.90;;;;;;5111778;28;20199;-82
2022/12/21 08:03:57;;;;;;;4.40;3.20;;;10.40;99.90;;;;;;5112572;28;20197;-82
2022/12/21 08:06:23;;;;;;;5.63;3.60;;;10.40;99.90;;;;;;5112689;28;20211;-82
2022/12/21 08:08:49;;;;;;;5.10;3.47;;;10.40;99.90;;;;;;5113021;28;20255;-84
2022/12/21 08:11:17;;;;;;;4.20;3.00;;;10.30;99.90;;;;;;5111956;28;20182;-83
2022/12/21 08:13:43;;;;;;;6.73;3.40;;;10.30;99.90;;;;;;5113129;28;20222;-85
2022/12/21 08:16:11;;;;;;;5.50;3.60;;;10.30;99.90;;;;;;5113364;28;20184;-84
2022/12/21 08:18:37;;;;;;;4.07;3.37;;;10.30;99.90;;;;;;5113624;28;20203;-84
2022/12/21 08:21:03;;;;;;;4.40;3.50;;;10.30;99.90;;;;;;5112608;28;20228;-86
2022/12/21 08:23:29;;;;;;;3.80;3.40;;;10.40;99.90;;;;;;5112129;28;20187;-82
2022/12/21 08:26:00;;;;;;;3.73;3.30;;;10.30;99.90;;;;;;5113530;28;20211;-83
2022/12/21 08:28:26;;;;;;;6.83;2.93;;;10.50;99.90;;;;;;5112831;28;20217;-83
2022/12/21 08:30:52;;;;;;;4.37;3.17;;;10.40;99.90;;;;;;5113136;28;20234;-83
2022/12/21 08:33:18;;;;;;;3.60;3.30;;;10.50;99.90;;;;;;5112454;28;20214;-82
2022/12/21 08:35:43;;;;;;;3.10;2.60;;;10.50;99.90;;;;;;5112032;28;20686;-83
2022/12/21 08:38:09;;;;;;;3.30;3.00;;;10.60;99.90;;;;;;5111852;28;20338;-84
2022/12/21 08:40:35;;;;;;;5.40;3.17;;;10.50;99.90;;;;;;5112549;28;20213;-82
2022/12/21 08:43:01;;;;;;;5.40;3.53;;;10.50;99.90;;;;;;5105430;28;20194;-82
2022/12/21 08:45:26;;;;;;;6.17;3.90;;;10.50;99.90;;;;;;5111391;28;20215;-85
2022/12/21 08:47:52;;;;;;;3.83;3.03;;;10.50;99.90;;;;;;5111659;28;20181;-82
2022/12/21 08:50:18;;;;;;;6.70;3.13;;;10.60;99.90;;;;;;5111348;28;20196;-82
2022/12/21 08:52:43;;;;;;;3.27;2.93;;;10.50;99.90;;;;;;5110845;28;20186;-82
2022/12/21 08:55:09;;;;;;;6.33;3.10;;;10.60;99.90;;;;;;5092768;28;20171;-83
2022/12/21 08:57:34;;;;;;;3.03;2.73;;;10.60;99.90;;;;;;5109906;28;20269;-83
2022/12/21 09:00:00;;;;;;;3.80;3.27;;;10.60;99.90;;;;;;5110887;28;20207;-83
2022/12/21 09:02:26;;;;;;;5.07;3.23;;;10.60;99.90;;;;;;5110072;28;20198;-82
2022/12/21 09:04:52;;;;;;;3.63;3.27;;;10.60;99.90;;;;;;5110386;28;20206;-82
2022/12/21 09:07:17;;;;;;;4.17;3.23;;;10.70;99.90;;;;;;5110778;28;20208;-80
2022/12/21 09:09:44;;;;;;;4.77;2.77;;;10.70;99.90;;;;;;5110116;28;20641;-84
2022/12/21 09:12:09;;;;;;;3.27;2.97;;;10.80;99.90;;;;;;5110796;28;20201;-84
2022/12/21 09:14:35;;;;;;;3.60;3.10;;;10.70;99.90;;;;;;5109918;28;20218;-82
2022/12/21 09:17:01;;;;;;;3.30;3.00;;;10.80;99.90;;;;;;5110021;28;20190;-82
2022/12/21 09:19:26;;;;;;;5.23;3.10;;;10.80;99.90;;;;;;5109852;28;20225;-83
2022/12/21 09:21:52;;;;;;;4.73;3.17;;;10.90;99.90;;;;;;5108151;28;20235;-81
2022/12/21 09:24:17;;;;;;;3.70;3.40;;;10.80;99.90;;;;;;5108127;28;20220;-82
2022/12/21 09:26:43;;;;;;;3.80;3.20;;;10.80;99.90;;;;;;5089408;28;20229;-80
2022/12/21 09:29:10;;;;;;;3.47;3.17;;;10.80;99.90;;;;;;5106766;28;20202;-81
2022/12/21 09:31:36;;;;;;;3.67;3.33;;;10.80;99.90;;;;;;5103637;28;20236;-82
2022/12/21 09:34:01;;;;;;;4.07;3.30;;;10.80;99.90;;;;;;5105511;28;20179;-80
2022/12/21 09:36:27;;;;;;;6.13;3.40;;;10.70;99.90;;;;;;5108784;28;20299;-81
2022/12/21 09:38:54;;;;;;;4.83;3.30;;;10.80;99.90;;;;;;5105871;28;20351;-82
2022/12/21 09:41:29;;;;;;;6.83;3.47;;;10.80;99.90;;;;;;5103083;28;20183;-80
2022/12/21 09:44:10;;;;;;;4.90;3.60;;;10.80;99.90;;;;;;5084634;28;20198;-80
2022/12/21 09:46:39;;;;;;;7.33;3.53;;;10.80;99.90;;;;;;5106949;28;20203;-85
2022/12/21 09:49:13;;;;;;;6.37;4.03;;;10.80;99.90;;;;;;5109656;28;20203;-83
2022/12/21 09:51:47;;;;;;;5.67;3.30;;;10.80;99.90;;;;;;5109947;28;20563;-85
2022/12/21 09:54:19;;;;;;;4.27;3.40;;;10.80;99.90;;;;;;5108201;28;20179;-83
2022/12/21 09:56:49;;;;;;;5.77;3.27;;;10.90;99.90;;;;;;5110665;28;20194;-83
2022/12/21 09:59:18;;;;;;;5.70;3.23;;;10.90;99.90;;;;;;5106149;28;20195;-84
2022/12/21 10:02:01;;;;;;;2.90;2.70;;;10.90;99.90;;;;;;5109850;28;20203;-83
2022/12/21 10:04:32;;;;;;;5.73;3.10;;;10.90;99.90;;;;;;5089756;28;20187;-80
2022/12/21 10:07:35;;;;;;;4.23;3.50;;;10.80;99.90;;;;;;5106331;28;20355;-85
2022/12/21 10:10:27;;;;;;;6.50;3.50;;;10.80;99.90;;;;;;5110693;28;20705;-83
2022/12/21 10:13:17;;;;;;;5.57;3.40;;;10.80;99.90;;;;;;5108603;28;20187;-82
2022/12/21 10:16:00;;;;;;;3.60;3.30;;;10.80;99.90;;;;;;5108871;28;20191;-82
2022/12/21 10:18:50;;;;;;;5.20;3.40;;;10.80;99.90;;;;;;5108340;28;20276;-83
2022/12/21 10:21:40;;;;;;;5.17;3.30;;;10.80;99.90;;;;;;5105744;28;20206;-81
2022/12/21 10:24:18;;;;;;;6.00;3.13;;;10.90;99.90;;;;;;5107829;28;20187;-81
2022/12/21 10:26:43;;;;;;;3.20;2.90;;;11.00;99.90;;;;;;5106769;28;20217;-81
2022/12/21 10:29:18;;;;;;;7.83;3.63;;;11.10;99.90;;;;;;5105931;28;20258;-81
2022/12/21 10:31:47;;;;;;;3.33;3.00;;;11.00;99.90;;;;;;5105677;28;20432;-80
2022/12/21 10:34:22;;;;;;;3.43;2.90;;;11.00;99.90;;;;;;5102756;28;20300;-83
2022/12/21 10:36:53;;;;;;;3.00;2.80;;;11.00;99.90;;;;;;5105426;28;20166;-84
2022/12/21 10:39:19;;;;;;;5.03;3.37;;;11.00;99.90;;;;;;5106958;28;20241;-82
2022/12/21 10:41:51;;;;;;;4.13;3.53;;;11.10;99.90;;;;;;5104326;28;20654;-83
2022/12/21 10:44:17;;;;;;;4.00;3.07;;;11.10;99.90;;;;;;5104047;28;20183;-82
2022/12/21 10:46:42;;;;;;;3.80;2.93;;;11.00;99.90;;;;;;5103829;28;20215;-79
2022/12/21 10:49:18;;;;;;;6.20;3.00;;;11.20;99.90;;;;;;5105799;28;20225;-81
2022/12/21 10:51:44;;;;;;;3.83;3.10;;;11.30;99.90;;;;;;5107233;28;20240;-82
2022/12/21 10:54:10;;;;;;;3.63;2.97;;;11.20;99.90;;;;;;5104956;28;20179;-81
2022/12/21 10:56:45;;;;;;;3.73;3.13;;;11.20;99.90;;;;;;5106629;28;20508;-82
2022/12/21 10:59:24;;;;;;;3.23;2.93;;;11.20;99.90;;;;;;5106695;28;20220;-83
2022/12/21 11:01:51;;;;;;;4.37;2.97;;;11.30;99.90;;;;;;5104917;28;20229;-81
2022/12/21 11:04:27;;;;;;;4.03;2.60;;;11.30;99.90;;;;;;5105011;28;20666;-79
2022/12/21 11:07:24;;;;;;;4.97;2.90;;;11.40;99.90;;;;;;5105825;28;20270;-82
2022/12/21 11:10:02;;;;;;;3.33;2.87;;;11.30;99.90;;;;;;5104379;28;20210;-82
2022/12/21 11:12:28;;;;;;;3.60;3.30;;;11.40;99.90;;;;;;5105533;28;20275;-83
2022/12/21 11:14:55;;;;;;;5.30;3.30;;;11.50;99.90;;;;;;5105963;28;20196;-81
2022/12/21 11:17:31;;;;;;;3.60;3.30;;;11.40;99.90;;;;;;5104032;28;20180;-82
2022/12/21 11:20:09;;;;;;;4.67;3.17;;;11.40;99.90;;;;;;5075712;28;20283;-79
2022/12/21 11:22:39;;;;;;;3.40;3.10;;;11.50;99.90;;;;;;5106403;28;20242;-83
2022/12/21 11:25:12;;;;;;;5.60;3.20;;;11.50;99.90;;;;;;5103068;28;20192;-85
2022/12/21 11:27:38;;;;;;;4.13;3.10;;;11.50;99.90;;;;;;5115828;28;20208;-84
2022/12/21 11:30:34;;;;;;;3.67;2.93;;;11.50;99.90;;;;;;5105424;28;20264;-81
2022/12/21 11:33:00;;;;;;;4.00;3.10;;;11.50;99.90;;;;;;5081446;28;20256;-83
2022/12/21 11:35:29;;;;;;;3.47;3.17;;;11.50;99.90;;;;;;5109121;28;20305;-82
2022/12/21 11:38:13;;;;;;;3.30;3.00;;;11.50;99.90;;;;;;5106099;28;20684;-81
2022/12/21 11:40:53;;;;;;;4.87;3.33;;;11.60;99.90;;;;;;5108833;28;20181;-83
2022/12/21 11:43:19;;;;;;;3.33;3.07;;;11.60;99.90;;;;;;5096711;28;20191;-80
2022/12/21 11:45:47;;;;;;;6.70;3.20;;;11.50;99.90;;;;;;5099297;28;20788;-81
2022/12/21 11:48:25;;;;;;;4.17;3.20;;;11.50;99.90;;;;;;5099268;28;20204;-80
2022/12/21 11:51:11;;;;;;;4.13;3.70;;;11.50;99.90;;;;;;5102536;28;20179;-82
2022/12/21 11:54:02;;;;;;;5.10;3.30;;;11.40;99.90;;;;;;5111603;28;20231;-82
2022/12/21 11:56:46;;;;;;;4.50;3.53;;;11.40;99.90;;;;;;5112586;28;20288;-84
2022/12/21 11:59:49;;;;;;;3.83;3.00;;;11.60;99.90;;;;;;5111817;28;20265;-86
2022/12/21 12:02:17;;;;;;;7.17;3.63;;;11.60;99.90;;;;;;5109155;28;20179;-86
2022/12/21 12:04:58;;;;;;;4.70;3.63;;;11.50;99.90;;;;;;5115133;28;20193;-86
2022/12/21 12:07:57;;;;;;;4.17;3.73;;;11.50;99.90;;;;;;5112156;28;20266;-85
2022/12/21 12:10:41;;;;;;;5.27;3.23;;;11.50;99.90;;;;;;5099049;28;20208;-83
2022/12/21 12:13:28;;;;;;;3.83;3.53;;;11.50;99.90;;;;;;5108852;28;20173;-84
2022/12/21 12:16:03;;;;;;;4.90;3.53;;;11.50;99.90;;;;;;5110501;28;20413;-83
2022/12/21 12:18:54;;;;;;;3.43;3.07;;;11.70;99.90;;;;;;5106566;28;20216;-85
2022/12/21 12:21:32;;;;;;;3.70;3.30;;;11.70;99.90;;;;;;5108948;28;20224;-85
2022/12/21 12:24:22;;;;;;;3.67;3.37;;;11.70;99.90;;;;;;5105745;28;20619;-85
2022/12/21 12:27:13;;;;;;;4.97;3.80;;;11.70;99.90;;;;;;5110611;28;20402;-84
2022/12/21 12:29:57;;;;;;;3.93;3.53;;;11.60;99.90;;;;;;5108100;28;20230;-84
2022/12/21 12:32:34;;;;;;;3.83;3.53;;;11.70;99.90;;;;;;5112115;28;20592;-85
2022/12/21 12:35:03;;;;;;;4.50;3.43;;;11.60;99.90;;;;;;5110969;28;20182;-84
2022/12/21 12:37:44;;;;;;;6.20;3.77;;;11.70;99.90;;;;;;5112797;28;20190;-86
2022/12/21 12:40:37;;;;;;;4.30;3.10;;;11.70;99.90;;;;;;5111020;28;20194;-83
2022/12/21 12:43:02;;;;;;;3.73;3.30;;;11.70;99.90;;;;;;5111267;28;20201;-83
2022/12/21 12:45:56;;;;;;;3.83;3.50;;;11.80;99.90;;;;;;5110023;28;20197;-86
2022/12/21 12:48:33;;;;;;;4.10;3.70;;;11.80;99.90;;;;;;5108482;28;20241;-84
2022/12/21 12:51:10;;;;;;;3.67;3.33;;;11.80;99.90;;;;;;5107683;28;20237;-84
2022/12/21 12:53:44;;;;;;;4.00;3.70;;;11.80;99.90;;;;;;5110695;28;20186;-87
2022/12/21 12:56:15;;;;;;;5.23;3.73;;;11.80;99.90;;;;;;5108729;28;20318;-84
2022/12/21 12:59:14;;;;;;;4.87;3.10;;;11.80;99.90;;;;;;5108006;28;20216;-85
2022/12/21 13:01:51;;;;;;;3.67;3.37;;;12.10;99.90;;;;;;5111144;28;20186;-85
2022/12/21 13:04:49;;;;;;;4.03;3.33;;;12.10;99.90;;;;;;5089920;28;20226;-85
2022/12/21 13:07:46;;;;;;;3.27;2.97;;;12.20;99.90;;;;;;5109650;28;20236;-85
2022/12/21 13:10:25;;;;;;;6.07;3.53;;;12.20;99.90;;;;;;5087653;28;20281;-84
2022/12/21 13:13:06;;;;;;;4.50;3.80;;;12.30;99.90;;;;;;5106894;28;20181;-86
2022/12/21 13:15:47;;;;;;;4.17;3.63;;;12.20;99.90;;;;;;5108691;28;20182;-85
2022/12/21 13:18:16;;;;;;;4.73;3.60;;;12.20;99.90;;;;;;5107494;28;20190;-84
2022/12/21 13:20:46;;;;;;;3.80;3.50;;;12.10;99.90;;;;;;5110319;28;20255;-87